sensor_id;sensor_type;location;lat;lon;timestamp;pressure;altitude;pressure_sealevel;temperature;humidity
4705;BME280;2366;51.332;6.610;2023-12-28T00:00:02;100915.56;;;14.24;60.01
4705;BME280;2366;51.332;6.610;2023-12-28T00:02:27;100910.97;;;14.26;60.09
4705;BME280;2366;51.332;6.610;2023-12-28T00:04:52;100921.63;;;14.26;59.65
4705;BME280;2366;51.332;6.610;2023-12-28T00:07:18;100925.88;;;14.29;59.42
4705;BME280;2366;51.332;6.610;2023-12-28T00:09:44;100924.47;;;14.12;60.07
4705;BME280;2366;51.332;6.610;2023-12-28T00:12:12;100922.72;;;14.24;59.39
4705;BME280;2366;51.332;6.610;2023-12-28T00:14:37;100922.03;;;14.33;59.09
4705;BME280;2366;51.332;6.610;2023-12-28T00:17:03;100926.13;;;14.26;59.33
4705;BME280;2366;51.332;6.610;2023-12-28T00:19:28;100923.75;;;14.34;59.09
4705;BME280;2366;51.332;6.610;2023-12-28T00:21:53;100914.31;;;14.41;59.06
4705;BME280;2366;51.332;6.610;2023-12-28T00:24:20;100916.09;;;14.29;59.21
4705;BME280;2366;51.332;6.610;2023-12-28T00:26:46;100911.25;;;14.34;59.12
4705;BME280;2366;51.332;6.610;2023-12-28T00:29:11;100918.84;;;14.52;58.47
4705;BME280;2366;51.332;6.610;2023-12-28T00:31:37;100915.91;;;14.44;58.98
4705;BME280;2366;51.332;6.610;2023-12-28T00:34:02;100930.06;;;14.57;58.52
4705;BME280;2366;51.332;6.610;2023-12-28T00:36:28;100942.13;;;14.50;58.72
4705;BME280;2366;51.332;6.610;2023-12-28T00:38:53;100940.34;;;14.37;59.27
4705;BME280;2366;51.332;6.610;2023-12-28T00:41:18;100936.44;;;14.30;59.65
4705;BME280;2366;51.332;6.610;2023-12-28T00:43:44;100940.69;;;14.33;59.64
4705;BME280;2366;51.332;6.610;2023-12-28T00:46:10;100947.81;;;14.45;59.19
4705;BME280;2366;51.332;6.610;2023-12-28T00:48:35;100946.28;;;14.54;59.04
4705;BME280;2366;51.332;6.610;2023-12-28T00:51:00;100934.56;;;14.44;59.11
4705;BME280;2366;51.332;6.610;2023-12-28T00:53:27;100941.88;;;14.29;59.64
4705;BME280;2366;51.332;6.610;2023-12-28T00:55:52;100945.19;;;13.95;60.16
4705;BME280;2366;51.332;6.610;2023-12-28T00:58:18;100942.97;;;14.26;59.94
4705;BME280;2366;51.332;6.610;2023-12-28T01:00:43;100955.16;;;14.42;59.77
4705;BME280;2366;51.332;6.610;2023-12-28T01:03:08;100952.06;;;14.48;59.32
4705;BME280;2366;51.332;6.610;2023-12-28T01:05:34;100953.13;;;14.45;59.30
4705;BME280;2366;51.332;6.610;2023-12-28T01:07:59;100956.44;;;14.49;59.52
4705;BME280;2366;51.332;6.610;2023-12-28T01:10:24;100959.31;;;14.58;59.25
4705;BME280;2366;51.332;6.610;2023-12-28T01:12:50;100961.63;;;14.63;59.31
4705;BME280;2366;51.332;6.610;2023-12-28T01:15:15;100965.03;;;14.65;59.25
4705;BME280;2366;51.332;6.610;2023-12-28T01:17:43;100965.19;;;14.51;59.78
4705;BME280;2366;51.332;6.610;2023-12-28T01:20:08;100975.97;;;14.49;60.02
4705;BME280;2366;51.332;6.610;2023-12-28T01:22:34;100968.50;;;14.42;60.21
4705;BME280;2366;51.332;6.610;2023-12-28T01:24:59;100960.06;;;14.48;60.16
4705;BME280;2366;51.332;6.610;2023-12-28T01:27:24;100966.47;;;14.45;60.48
4705;BME280;2366;51.332;6.610;2023-12-28T01:29:50;100963.34;;;14.27;60.69
4705;BME280;2366;51.332;6.610;2023-12-28T01:32:15;100978.72;;;14.48;60.34
4705;BME280;2366;51.332;6.610;2023-12-28T01:34:41;100982.59;;;14.44;60.52
4705;BME280;2366;51.332;6.610;2023-12-28T01:37:07;100989.44;;;14.35;60.92
4705;BME280;2366;51.332;6.610;2023-12-28T01:39:33;100985.59;;;14.39;60.21
4705;BME280;2366;51.332;6.610;2023-12-28T01:41:58;100990.50;;;14.45;60.48
4705;BME280;2366;51.332;6.610;2023-12-28T01:44:24;100998.19;;;14.37;60.72
4705;BME280;2366;51.332;6.610;2023-12-28T01:46:49;100994.75;;;14.48;60.33
4705;BME280;2366;51.332;6.610;2023-12-28T01:49:15;100998.59;;;14.44;60.49
4705;BME280;2366;51.332;6.610;2023-12-28T01:51:41;100997.91;;;14.53;60.41
4705;BME280;2366;51.332;6.610;2023-12-28T01:54:07;101004.75;;;14.57;60.27
4705;BME280;2366;51.332;6.610;2023-12-28T01:56:34;101005.44;;;14.35;61.03
4705;BME280;2366;51.332;6.610;2023-12-28T01:59:00;101005.28;;;14.25;61.19
4705;BME280;2366;51.332;6.610;2023-12-28T02:01:27;101003.75;;;14.34;61.17
4705;BME280;2366;51.332;6.610;2023-12-28T02:03:53;101000.06;;;14.48;60.77
4705;BME280;2366;51.332;6.610;2023-12-28T02:06:22;100996.00;;;14.55;60.53
4705;BME280;2366;51.332;6.610;2023-12-28T02:08:48;101008.06;;;14.11;61.34
4705;BME280;2366;51.332;6.610;2023-12-28T02:11:13;101008.44;;;14.30;61.27
4705;BME280;2366;51.332;6.610;2023-12-28T02:13:39;101014.78;;;14.53;60.55
4705;BME280;2366;51.332;6.610;2023-12-28T02:16:11;101011.16;;;14.54;60.65
4705;BME280;2366;51.332;6.610;2023-12-28T02:18:43;101017.56;;;14.65;60.70
4705;BME280;2366;51.332;6.610;2023-12-28T02:21:11;101011.53;;;14.74;60.68
4705;BME280;2366;51.332;6.610;2023-12-28T02:23:37;101014.09;;;14.75;60.70
4705;BME280;2366;51.332;6.610;2023-12-28T02:26:02;101012.16;;;14.77;60.71
4705;BME280;2366;51.332;6.610;2023-12-28T02:28:28;101012.44;;;14.86;60.82
4705;BME280;2366;51.332;6.610;2023-12-28T02:30:53;101004.25;;;14.76;61.11
4705;BME280;2366;51.332;6.610;2023-12-28T02:35:59;101020.66;;;14.83;61.05
4705;BME280;2366;51.332;6.610;2023-12-28T02:38:27;101015.84;;;14.88;61.04
4705;BME280;2366;51.332;6.610;2023-12-28T02:40:54;101015.50;;;14.92;61.15
4705;BME280;2366;51.332;6.610;2023-12-28T02:43:20;101000.78;;;14.87;61.07
4705;BME280;2366;51.332;6.610;2023-12-28T02:45:46;101010.53;;;14.88;61.37
4705;BME280;2366;51.332;6.610;2023-12-28T02:48:13;101008.34;;;14.93;61.05
4705;BME280;2366;51.332;6.610;2023-12-28T02:50:38;101009.38;;;15.03;60.79
4705;BME280;2366;51.332;6.610;2023-12-28T02:53:04;100998.44;;;15.06;60.60
4705;BME280;2366;51.332;6.610;2023-12-28T02:55:29;100984.44;;;14.91;60.88
4705;BME280;2366;51.332;6.610;2023-12-28T02:57:56;101001.47;;;15.02;60.57
4705;BME280;2366;51.332;6.610;2023-12-28T03:00:24;101002.41;;;15.00;60.35
4705;BME280;2366;51.332;6.610;2023-12-28T03:02:50;101004.03;;;15.03;60.43
4705;BME280;2366;51.332;6.610;2023-12-28T03:05:16;101010.22;;;14.55;61.41
4705;BME280;2366;51.332;6.610;2023-12-28T03:07:42;101012.59;;;14.71;61.31
4705;BME280;2366;51.332;6.610;2023-12-28T03:10:08;101009.03;;;14.84;60.92
4705;BME280;2366;51.332;6.610;2023-12-28T03:12:34;101009.56;;;15.00;60.67
4705;BME280;2366;51.332;6.610;2023-12-28T03:14:59;101002.69;;;15.09;60.32
4705;BME280;2366;51.332;6.610;2023-12-28T03:17:24;101001.75;;;15.10;60.41
4705;BME280;2366;51.332;6.610;2023-12-28T03:19:50;101000.47;;;14.67;61.49
4705;BME280;2366;51.332;6.610;2023-12-28T03:22:16;101011.84;;;14.93;60.91
4705;BME280;2366;51.332;6.610;2023-12-28T03:24:42;101003.09;;;14.91;60.52
4705;BME280;2366;51.332;6.610;2023-12-28T03:27:08;100988.81;;;14.92;60.67
4705;BME280;2366;51.332;6.610;2023-12-28T03:29:33;100998.69;;;15.03;60.38
4705;BME280;2366;51.332;6.610;2023-12-28T03:31:59;100996.34;;;14.74;61.34
4705;BME280;2366;51.332;6.610;2023-12-28T03:34:24;101009.16;;;14.82;61.11
4705;BME280;2366;51.332;6.610;2023-12-28T03:36:52;101000.25;;;14.70;61.62
4705;BME280;2366;51.332;6.610;2023-12-28T03:39:18;100991.03;;;14.74;61.47
4705;BME280;2366;51.332;6.610;2023-12-28T03:41:43;100991.72;;;14.65;61.84
4705;BME280;2366;51.332;6.610;2023-12-28T03:44:08;100999.16;;;14.73;61.54
4705;BME280;2366;51.332;6.610;2023-12-28T03:46:34;100990.56;;;14.81;61.35
4705;BME280;2366;51.332;6.610;2023-12-28T03:49:00;100996.59;;;14.71;61.48
4705;BME280;2366;51.332;6.610;2023-12-28T03:51:25;101006.72;;;14.79;61.45
4705;BME280;2366;51.332;6.610;2023-12-28T03:53:50;100995.84;;;14.69;61.59
4705;BME280;2366;51.332;6.610;2023-12-28T03:56:22;100995.47;;;14.63;61.94
4705;BME280;2366;51.332;6.610;2023-12-28T03:58:48;100984.78;;;14.26;62.77
4705;BME280;2366;51.332;6.610;2023-12-28T04:01:14;100977.03;;;14.47;62.61
4705;BME280;2366;51.332;6.610;2023-12-28T04:03:42;100991.72;;;14.65;62.13
4705;BME280;2366;51.332;6.610;2023-12-28T04:06:08;100995.38;;;14.64;61.95
4705;BME280;2366;51.332;6.610;2023-12-28T04:08:33;100992.00;;;14.36;62.83
4705;BME280;2366;51.332;6.610;2023-12-28T04:10:58;101006.69;;;14.55;62.37
4705;BME280;2366;51.332;6.610;2023-12-28T04:13:24;100994.34;;;14.41;62.55
4705;BME280;2366;51.332;6.610;2023-12-28T04:15:49;101002.84;;;14.46;62.59
4705;BME280;2366;51.332;6.610;2023-12-28T04:18:14;101007.44;;;14.57;62.26
4705;BME280;2366;51.332;6.610;2023-12-28T04:20:42;101014.13;;;14.63;61.85
4705;BME280;2366;51.332;6.610;2023-12-28T04:23:07;101007.72;;;14.65;62.00
4705;BME280;2366;51.332;6.610;2023-12-28T04:25:33;101008.16;;;14.59;62.00
4705;BME280;2366;51.332;6.610;2023-12-28T04:27:58;101007.78;;;14.76;61.58
4705;BME280;2366;51.332;6.610;2023-12-28T04:30:23;101010.19;;;14.68;61.78
4705;BME280;2366;51.332;6.610;2023-12-28T04:32:49;101014.19;;;14.74;61.68
4705;BME280;2366;51.332;6.610;2023-12-28T04:35:14;101017.22;;;14.69;61.54
4705;BME280;2366;51.332;6.610;2023-12-28T04:37:40;101020.50;;;14.73;61.49
4705;BME280;2366;51.332;6.610;2023-12-28T04:40:05;101025.66;;;14.63;61.77
4705;BME280;2366;51.332;6.610;2023-12-28T04:42:31;101018.06;;;14.70;61.64
4705;BME280;2366;51.332;6.610;2023-12-28T04:44:56;101015.53;;;14.68;61.62
4705;BME280;2366;51.332;6.610;2023-12-28T04:47:21;101023.28;;;14.71;61.49
4705;BME280;2366;51.332;6.610;2023-12-28T04:49:47;101015.19;;;14.73;61.75
4705;BME280;2366;51.332;6.610;2023-12-28T04:52:12;101003.06;;;14.56;62.03
4705;BME280;2366;51.332;6.610;2023-12-28T04:54:40;101005.34;;;14.36;62.48
4705;BME280;2366;51.332;6.610;2023-12-28T04:57:05;100994.75;;;14.48;62.50
4705;BME280;2366;51.332;6.610;2023-12-28T04:59:38;100999.81;;;14.64;62.02
4705;BME280;2366;51.332;6.610;2023-12-28T05:02:03;101003.06;;;14.56;62.03
4705;BME280;2366;51.332;6.610;2023-12-28T05:04:28;100998.59;;;14.44;62.45
4705;BME280;2366;51.332;6.610;2023-12-28T05:06:54;101002.81;;;14.22;63.10
4705;BME280;2366;51.332;6.610;2023-12-28T05:09:19;101005.03;;;14.28;63.25
4705;BME280;2366;51.332;6.610;2023-12-28T05:11:44;101007.13;;;14.49;62.22
4705;BME280;2366;51.332;6.610;2023-12-28T05:14:10;101015.25;;;14.47;62.34
4705;BME280;2366;51.332;6.610;2023-12-28T05:16:35;101011.06;;;14.56;61.99
4705;BME280;2366;51.332;6.610;2023-12-28T05:19:00;101010.63;;;14.62;61.79
4705;BME280;2366;51.332;6.610;2023-12-28T05:21:26;101015.28;;;14.34;62.68
4705;BME280;2366;51.332;6.610;2023-12-28T05:23:52;101023.13;;;14.49;62.25
4705;BME280;2366;51.332;6.610;2023-12-28T05:26:17;101023.44;;;14.57;61.87
4705;BME280;2366;51.332;6.610;2023-12-28T05:28:42;101038.53;;;14.32;62.46
4705;BME280;2366;51.332;6.610;2023-12-28T05:31:08;101032.81;;;14.50;61.79
4705;BME280;2366;51.332;6.610;2023-12-28T05:33:33;101037.66;;;14.57;61.56
4705;BME280;2366;51.332;6.610;2023-12-28T05:35:58;101039.53;;;14.68;61.25
4705;BME280;2366;51.332;6.610;2023-12-28T05:38:24;101044.34;;;14.63;61.54
4705;BME280;2366;51.332;6.610;2023-12-28T05:40:49;101030.66;;;14.68;61.40
4705;BME280;2366;51.332;6.610;2023-12-28T05:43:14;101039.53;;;14.68;61.35
4705;BME280;2366;51.332;6.610;2023-12-28T05:45:40;101040.94;;;14.61;61.54
4705;BME280;2366;51.332;6.610;2023-12-28T05:48:06;101042.75;;;14.61;61.44
4705;BME280;2366;51.332;6.610;2023-12-28T05:50:32;101045.31;;;14.62;61.37
4705;BME280;2366;51.332;6.610;2023-12-28T05:52:57;101042.66;;;14.62;61.39
4705;BME280;2366;51.332;6.610;2023-12-28T05:55:23;101061.50;;;14.72;61.37
4705;BME280;2366;51.332;6.610;2023-12-28T05:57:48;101052.28;;;14.76;61.11
4705;BME280;2366;51.332;6.610;2023-12-28T06:00:14;101056.72;;;14.64;61.46
4705;BME280;2366;51.332;6.610;2023-12-28T06:02:40;101073.91;;;14.60;61.64
4705;BME280;2366;51.332;6.610;2023-12-28T06:05:06;101063.59;;;14.79;60.82
4705;BME280;2366;51.332;6.610;2023-12-28T06:07:32;101066.47;;;14.76;60.75
4705;BME280;2366;51.332;6.610;2023-12-28T06:09:57;101061.50;;;14.72;60.67
4705;BME280;2366;51.332;6.610;2023-12-28T06:12:22;101072.81;;;14.75;60.82
4705;BME280;2366;51.332;6.610;2023-12-28T06:14:48;101063.41;;;14.70;60.81
4705;BME280;2366;51.332;6.610;2023-12-28T06:17:13;101049.81;;;14.62;60.77
4705;BME280;2366;51.332;6.610;2023-12-28T06:19:40;101067.47;;;14.75;60.43
4705;BME280;2366;51.332;6.610;2023-12-28T06:22:06;101069.56;;;14.83;60.22
4705;BME280;2366;51.332;6.610;2023-12-28T06:24:31;101058.47;;;14.76;60.47
4705;BME280;2366;51.332;6.610;2023-12-28T06:26:57;101061.31;;;14.49;60.93
4705;BME280;2366;51.332;6.610;2023-12-28T06:29:22;101064.72;;;14.64;60.63
4705;BME280;2366;51.332;6.610;2023-12-28T06:31:47;101066.72;;;14.73;60.14
4705;BME280;2366;51.332;6.610;2023-12-28T06:34:13;101063.75;;;14.65;60.53
4705;BME280;2366;51.332;6.610;2023-12-28T06:36:38;101052.59;;;14.60;60.46
4705;BME280;2366;51.332;6.610;2023-12-28T06:39:04;101048.94;;;14.61;60.55
4705;BME280;2366;51.332;6.610;2023-12-28T06:41:29;101050.47;;;14.76;60.12
4705;BME280;2366;51.332;6.610;2023-12-28T06:43:55;101047.88;;;14.51;60.35
4705;BME280;2366;51.332;6.610;2023-12-28T06:46:20;101052.47;;;14.62;60.29
4705;BME280;2366;51.332;6.610;2023-12-28T06:48:47;101051.59;;;14.61;60.26
4705;BME280;2366;51.332;6.610;2023-12-28T06:51:17;101044.41;;;14.74;59.89
4705;BME280;2366;51.332;6.610;2023-12-28T06:53:43;101045.22;;;14.88;59.62
4705;BME280;2366;51.332;6.610;2023-12-28T06:56:09;101049.06;;;14.84;59.43
4705;BME280;2366;51.332;6.610;2023-12-28T06:58:34;101053.84;;;14.91;59.29
4705;BME280;2366;51.332;6.610;2023-12-28T07:01:05;101052.25;;;14.89;59.28
4705;BME280;2366;51.332;6.610;2023-12-28T07:03:31;101069.09;;;14.65;59.89
4705;BME280;2366;51.332;6.610;2023-12-28T07:06:01;101060.59;;;14.84;59.39
4705;BME280;2366;51.332;6.610;2023-12-28T07:08:29;101058.53;;;14.64;59.69
4705;BME280;2366;51.332;6.610;2023-12-28T07:10:54;101059.69;;;14.96;58.78
4705;BME280;2366;51.332;6.610;2023-12-28T07:13:20;101060.16;;;14.90;58.90
4705;BME280;2366;51.332;6.610;2023-12-28T07:15:45;101072.84;;;14.63;59.31
4705;BME280;2366;51.332;6.610;2023-12-28T07:18:10;101069.63;;;14.94;58.66
4705;BME280;2366;51.332;6.610;2023-12-28T07:20:36;101063.28;;;14.84;58.89
4705;BME280;2366;51.332;6.610;2023-12-28T07:23:01;101070.13;;;14.75;58.99
4705;BME280;2366;51.332;6.610;2023-12-28T07:25:28;101066.97;;;14.94;58.63
4705;BME280;2366;51.332;6.610;2023-12-28T07:27:53;101079.44;;;14.94;58.25
4705;BME280;2366;51.332;6.610;2023-12-28T07:30:18;101080.13;;;15.09;58.04
4705;BME280;2366;51.332;6.610;2023-12-28T07:32:44;101077.59;;;15.07;57.86
4705;BME280;2366;51.332;6.610;2023-12-28T07:35:10;101098.94;;;15.07;58.02
4705;BME280;2366;51.332;6.610;2023-12-28T07:37:36;101105.63;;;14.89;58.45
4705;BME280;2366;51.332;6.610;2023-12-28T07:40:02;101101.03;;;14.91;58.32
4705;BME280;2366;51.332;6.610;2023-12-28T07:42:28;101108.41;;;15.11;57.85
4705;BME280;2366;51.332;6.610;2023-12-28T07:44:54;101104.19;;;15.20;57.76
4705;BME280;2366;51.332;6.610;2023-12-28T07:47:19;101118.50;;;15.08;57.85
4705;BME280;2366;51.332;6.610;2023-12-28T07:49:44;101116.03;;;15.05;57.98
4705;BME280;2366;51.332;6.610;2023-12-28T07:52:10;101110.13;;;15.12;57.79
4705;BME280;2366;51.332;6.610;2023-12-28T07:54:35;101113.19;;;15.19;57.61
4705;BME280;2366;51.332;6.610;2023-12-28T07:57:01;101123.28;;;15.03;57.94
4705;BME280;2366;51.332;6.610;2023-12-28T07:59:26;101120.91;;;15.11;57.72
4705;BME280;2366;51.332;6.610;2023-12-28T08:01:51;101122.97;;;15.07;57.66
4705;BME280;2366;51.332;6.610;2023-12-28T08:04:17;101117.75;;;15.06;57.50
4705;BME280;2366;51.332;6.610;2023-12-28T08:06:42;101126.59;;;14.82;57.89
4705;BME280;2366;51.332;6.610;2023-12-28T08:09:07;101120.63;;;15.03;57.50
4705;BME280;2366;51.332;6.610;2023-12-28T08:11:34;101131.50;;;15.12;57.59
4705;BME280;2366;51.332;6.610;2023-12-28T08:13:59;101132.44;;;15.11;57.40
4705;BME280;2366;51.332;6.610;2023-12-28T08:16:24;101130.59;;;15.25;56.89
4705;BME280;2366;51.332;6.610;2023-12-28T08:18:51;101135.19;;;15.23;57.11
4705;BME280;2366;51.332;6.610;2023-12-28T08:21:16;101126.44;;;15.20;57.41
4705;BME280;2366;51.332;6.610;2023-12-28T08:23:42;101127.00;;;15.37;57.00
4705;BME280;2366;51.332;6.610;2023-12-28T08:26:07;101127.44;;;15.31;57.00
4705;BME280;2366;51.332;6.610;2023-12-28T08:28:33;101137.38;;;15.05;57.77
4705;BME280;2366;51.332;6.610;2023-12-28T08:30:58;101132.44;;;15.11;57.40
4705;BME280;2366;51.332;6.610;2023-12-28T08:33:24;101132.38;;;15.24;57.26
4705;BME280;2366;51.332;6.610;2023-12-28T08:35:49;101139.34;;;15.27;56.96
4705;BME280;2366;51.332;6.610;2023-12-28T08:38:14;101150.69;;;15.41;56.82
4705;BME280;2366;51.332;6.610;2023-12-28T08:40:40;101146.44;;;15.15;57.06
4705;BME280;2366;51.332;6.610;2023-12-28T08:43:05;101151.63;;;15.29;56.97
4705;BME280;2366;51.332;6.610;2023-12-28T08:45:31;101154.00;;;15.21;57.17
4705;BME280;2366;51.332;6.610;2023-12-28T08:47:56;101144.84;;;15.36;56.83
4705;BME280;2366;51.332;6.610;2023-12-28T08:50:22;101153.94;;;15.34;56.93
4705;BME280;2366;51.332;6.610;2023-12-28T08:52:47;101150.53;;;15.32;56.44
4705;BME280;2366;51.332;6.610;2023-12-28T08:55:13;101150.13;;;15.49;56.38
4705;BME280;2366;51.332;6.610;2023-12-28T08:57:39;101158.06;;;15.62;55.75
4705;BME280;2366;51.332;6.610;2023-12-28T09:00:05;101150.69;;;15.41;56.40
4705;BME280;2366;51.332;6.610;2023-12-28T09:02:31;101156.59;;;15.58;55.86
4705;BME280;2366;51.332;6.610;2023-12-28T09:04:58;101158.03;;;15.75;55.58
4705;BME280;2366;51.332;6.610;2023-12-28T09:07:23;101154.44;;;15.39;55.72
4705;BME280;2366;51.332;6.610;2023-12-28T09:09:49;101160.34;;;15.55;55.80
4705;BME280;2366;51.332;6.610;2023-12-28T09:12:14;101160.72;;;15.86;55.26
4705;BME280;2366;51.332;6.610;2023-12-28T09:14:40;101164.75;;;15.92;54.52
4705;BME280;2366;51.332;6.610;2023-12-28T09:17:05;101154.91;;;15.92;54.90
4705;BME280;2366;51.332;6.610;2023-12-28T09:19:30;101152.63;;;15.99;54.91
4705;BME280;2366;51.332;6.610;2023-12-28T09:21:56;101149.13;;;16.21;53.88
4705;BME280;2366;51.332;6.610;2023-12-28T09:24:21;101165.16;;;16.21;53.92
4705;BME280;2366;51.332;6.610;2023-12-28T09:26:47;101167.84;;;16.32;53.52
4705;BME280;2366;51.332;6.610;2023-12-28T09:29:12;101166.91;;;16.45;52.85
4705;BME280;2366;51.332;6.610;2023-12-28T09:31:39;101167.38;;;16.38;52.91
4705;BME280;2366;51.332;6.610;2023-12-28T09:34:04;101169.44;;;16.35;53.26
4705;BME280;2366;51.332;6.610;2023-12-28T09:36:30;101173.75;;;16.02;53.80
4705;BME280;2366;51.332;6.610;2023-12-28T09:38:55;101174.66;;;16.25;53.40
4705;BME280;2366;51.332;6.610;2023-12-28T09:41:22;101178.69;;;16.42;52.68
4705;BME280;2366;51.332;6.610;2023-12-28T09:43:54;101157.84;;;16.00;53.58
4705;BME280;2366;51.332;6.610;2023-12-28T09:46:20;101154.94;;;16.15;53.35
4705;BME280;2366;51.332;6.610;2023-12-28T09:48:46;101157.41;;;16.29;52.95
4705;BME280;2366;51.332;6.610;2023-12-28T09:51:12;101151.78;;;16.43;52.53
4705;BME280;2366;51.332;6.610;2023-12-28T09:53:37;101167.63;;;16.47;52.68
4705;BME280;2366;51.332;6.610;2023-12-28T09:56:03;101159.34;;;16.27;52.92
4705;BME280;2366;51.332;6.610;2023-12-28T09:58:29;101160.03;;;16.07;52.97
4705;BME280;2366;51.332;6.610;2023-12-28T10:00:59;101169.16;;;16.04;53.34
4705;BME280;2366;51.332;6.610;2023-12-28T10:03:24;101157.16;;;16.21;52.93
4705;BME280;2366;51.332;6.610;2023-12-28T10:05:50;101155.94;;;16.14;52.41
4705;BME280;2366;51.332;6.610;2023-12-28T10:08:15;101176.59;;;16.23;52.70
4705;BME280;2366;51.332;6.610;2023-12-28T10:10:42;101163.25;;;16.57;51.89
4705;BME280;2366;51.332;6.610;2023-12-28T10:13:08;101173.09;;;16.56;51.67
4705;BME280;2366;51.332;6.610;2023-12-28T10:15:35;101167.38;;;16.72;51.31
4705;BME280;2366;51.332;6.610;2023-12-28T10:18:01;101162.38;;;16.56;51.54
4705;BME280;2366;51.332;6.610;2023-12-28T10:20:28;101173.47;;;16.74;51.29
4705;BME280;2366;51.332;6.610;2023-12-28T10:22:53;101172.50;;;16.87;50.94
4705;BME280;2366;51.332;6.610;2023-12-28T10:25:19;101157.66;;;16.82;51.31
4705;BME280;2366;51.332;6.610;2023-12-28T10:27:44;101165.69;;;16.49;51.92
4705;BME280;2366;51.332;6.610;2023-12-28T10:30:10;101167.38;;;16.50;51.93
4705;BME280;2366;51.332;6.610;2023-12-28T10:32:39;101161.41;;;16.69;51.85
4705;BME280;2366;51.332;6.610;2023-12-28T10:35:05;101161.03;;;16.17;53.06
4705;BME280;2366;51.332;6.610;2023-12-28T10:37:32;101171.50;;;16.54;52.45
4705;BME280;2366;51.332;6.610;2023-12-28T10:39:59;101165.19;;;16.89;51.81
4705;BME280;2366;51.332;6.610;2023-12-28T10:42:33;101164.09;;;16.80;51.46
4705;BME280;2366;51.332;6.610;2023-12-28T10:45:03;101166.41;;;16.51;52.23
4705;BME280;2366;51.332;6.610;2023-12-28T10:47:36;101166.28;;;16.63;51.85
4705;BME280;2366;51.332;6.610;2023-12-28T10:50:04;101161.06;;;16.96;51.46
4705;BME280;2366;51.332;6.610;2023-12-28T10:52:31;101155.31;;;16.67;51.60
4705;BME280;2366;51.332;6.610;2023-12-28T10:55:03;101156.16;;;16.67;51.72
4705;BME280;2366;51.332;6.610;2023-12-28T10:57:33;101166.03;;;16.78;51.37
4705;BME280;2366;51.332;6.610;2023-12-28T11:00:09;101151.31;;;16.61;51.81
4705;BME280;2366;51.332;6.610;2023-12-28T11:02:44;101159.94;;;16.76;51.10
4705;BME280;2366;51.332;6.610;2023-12-28T11:05:12;101154.84;;;16.73;51.64
4705;BME280;2366;51.332;6.610;2023-12-28T11:07:38;101156.56;;;16.51;51.67
4705;BME280;2366;51.332;6.610;2023-12-28T11:10:06;101155.44;;;16.54;51.29
4705;BME280;2366;51.332;6.610;2023-12-28T11:12:32;101152.06;;;16.74;51.03
4705;BME280;2366;51.332;6.610;2023-12-28T11:14:59;101161.66;;;16.54;51.19
4705;BME280;2366;51.332;6.610;2023-12-28T11:17:25;101153.75;;;16.53;51.36
4705;BME280;2366;51.332;6.610;2023-12-28T11:19:53;101150.34;;;16.73;51.16
4705;BME280;2366;51.332;6.610;2023-12-28T11:22:19;101139.63;;;16.73;50.96
4705;BME280;2366;51.332;6.610;2023-12-28T11:24:45;101157.66;;;16.94;50.34
4705;BME280;2366;51.332;6.610;2023-12-28T11:27:11;101155.56;;;16.75;50.76
4705;BME280;2366;51.332;6.610;2023-12-28T11:29:38;101148.03;;;16.57;50.99
4705;BME280;2366;51.332;6.610;2023-12-28T11:32:03;101138.53;;;16.76;50.77
4705;BME280;2366;51.332;6.610;2023-12-28T11:34:31;101139.91;;;16.81;50.82
4705;BME280;2366;51.332;6.610;2023-12-28T11:37:03;101141.81;;;16.91;50.08
4705;BME280;2366;51.332;6.610;2023-12-28T11:39:34;101131.59;;;16.84;50.40
4705;BME280;2366;51.332;6.610;2023-12-28T11:42:04;101140.13;;;16.90;50.33
4705;BME280;2366;51.332;6.610;2023-12-28T11:44:41;101134.00;;;16.99;50.06
4705;BME280;2366;51.332;6.610;2023-12-28T11:47:25;101131.81;;;17.04;50.08
4705;BME280;2366;51.332;6.610;2023-12-28T11:49:52;101139.88;;;16.70;50.80
4705;BME280;2366;51.332;6.610;2023-12-28T11:52:37;101126.34;;;16.72;50.42
4705;BME280;2366;51.332;6.610;2023-12-28T11:55:03;101126.97;;;16.75;50.74
4705;BME280;2366;51.332;6.610;2023-12-28T11:57:29;101126.75;;;16.56;50.68
4705;BME280;2366;51.332;6.610;2023-12-28T12:00:00;101118.13;;;16.63;50.66
4705;BME280;2366;51.332;6.610;2023-12-28T12:02:26;101104.59;;;16.76;50.14
4705;BME280;2366;51.332;6.610;2023-12-28T12:04:53;101110.78;;;16.88;50.25
4705;BME280;2366;51.332;6.610;2023-12-28T12:07:19;101113.34;;;16.90;50.41
4705;BME280;2366;51.332;6.610;2023-12-28T12:09:44;101106.53;;;16.74;50.38
4705;BME280;2366;51.332;6.610;2023-12-28T12:12:10;101105.94;;;16.82;50.47
4705;BME280;2366;51.332;6.610;2023-12-28T12:14:35;101102.66;;;16.90;50.58
4705;BME280;2366;51.332;6.610;2023-12-28T12:17:01;101099.19;;;16.99;50.10
4705;BME280;2366;51.332;6.610;2023-12-28T12:19:28;101100.19;;;16.87;50.04
4705;BME280;2366;51.332;6.610;2023-12-28T12:21:54;101081.94;;;16.80;50.00
4705;BME280;2366;51.332;6.610;2023-12-28T12:24:20;101085.19;;;16.95;49.97
4705;BME280;2366;51.332;6.610;2023-12-28T12:26:46;101080.34;;;16.89;50.16
4705;BME280;2366;51.332;6.610;2023-12-28T12:29:15;101081.56;;;16.96;49.94
4705;BME280;2366;51.332;6.610;2023-12-28T12:31:41;101077.56;;;16.91;49.88
4705;BME280;2366;51.332;6.610;2023-12-28T12:34:09;101069.47;;;17.02;49.40
4705;BME280;2366;51.332;6.610;2023-12-28T12:36:35;101064.00;;;17.03;49.54
4705;BME280;2366;51.332;6.610;2023-12-28T12:39:00;101064.16;;;16.79;49.94
4705;BME280;2366;51.332;6.610;2023-12-28T12:41:26;101060.97;;;16.97;50.02
4705;BME280;2366;51.332;6.610;2023-12-28T12:43:52;101068.47;;;17.14;49.57
4705;BME280;2366;51.332;6.610;2023-12-28T12:46:20;101062.16;;;17.04;49.41
4705;BME280;2366;51.332;6.610;2023-12-28T12:48:59;101070.91;;;17.06;49.48
4705;BME280;2366;51.332;6.610;2023-12-28T12:51:25;101071.91;;;17.05;49.39
4705;BME280;2366;51.332;6.610;2023-12-28T12:53:58;101075.28;;;17.18;48.76
4705;BME280;2366;51.332;6.610;2023-12-28T12:56:25;101079.50;;;17.21;48.74
4705;BME280;2366;51.332;6.610;2023-12-28T12:58:51;101071.03;;;17.16;49.02
4705;BME280;2366;51.332;6.610;2023-12-28T13:01:16;101070.88;;;16.74;49.23
4705;BME280;2366;51.332;6.610;2023-12-28T13:03:45;101066.75;;;16.81;49.52
4705;BME280;2366;51.332;6.610;2023-12-28T13:06:11;101071.13;;;16.82;49.50